CheckWX is a tool to help pilots better visualize weather data.  It is not intended as a substitute for an official pre-flight weather briefing.

00:57:49 UTC

ENGM METAR
Oslo Gardermoen Airport
Oslo, Norway
Current

38 mins ago

ENGM 190020Z VRB02KT CAVOK 12/10 Q1010
Observed
Jun-19 @ 00:20 UTC
Wind
  • Variable at 2 KTS
Visibility
10,000+ meters
Flight Rules
VFR
Cloud Levels
  • Clear skies
Temperature
12°C / 54°F
Dewpoint
10°C / 50°F
Humidity
88%
Altimeter
29.82" Hg
Pressure
1009.92 hPa
Previous

1 hour ago

ENGM 182350Z 00000KT CAVOK 12/10 Q1010
Observed
Jun-18 @ 23:50 UTC
Visibility
10,000+ meters
Flight Rules
VFR
Cloud Levels
  • Clear skies
Temperature
12°C / 54°F
Dewpoint
10°C / 50°F
Humidity
88%
Altimeter
29.82" Hg
Pressure
1009.92 hPa
Previous

2 hours ago

ENGM 182320Z 20006KT CAVOK 13/10 Q1010
Observed
Jun-18 @ 23:20 UTC
Wind
  • 200° at 6 KTS
Visibility
10,000+ meters
Flight Rules
VFR
Cloud Levels
  • Clear skies
Temperature
13°C / 55°F
Dewpoint
10°C / 50°F
Humidity
82%
Altimeter
29.82" Hg
Pressure
1009.92 hPa